createdAt,value
2019-04-07T00:00:47.653Z,11.68
2019-04-07T00:01:46.956Z,11.65
2019-04-07T00:02:47.529Z,11.64
2019-04-07T00:03:46.844Z,11.70
2019-04-07T00:04:46.787Z,11.75
2019-04-07T00:05:47.235Z,11.67
2019-04-07T00:06:46.678Z,11.65
2019-04-07T00:07:47.137Z,11.62
2019-04-07T00:08:46.624Z,11.62
2019-04-07T00:09:46.507Z,11.64
2019-04-07T00:10:46.851Z,11.62
2019-04-07T00:11:46.390Z,11.65
2019-04-07T00:12:46.519Z,11.67
2019-04-07T00:13:46.875Z,11.64
2019-04-07T00:14:46.666Z,11.54
2019-04-07T00:15:46.288Z,11.57
2019-04-07T00:16:46.107Z,11.56
2019-04-07T00:17:46.049Z,11.56
2019-04-07T00:18:45.991Z,11.59
2019-04-07T00:19:45.936Z,11.57
2019-04-07T00:20:45.878Z,11.59
2019-04-07T00:21:45.824Z,11.49
2019-04-07T00:22:45.770Z,11.53
2019-04-07T00:23:45.805Z,11.54
2019-04-07T00:24:45.651Z,11.57
2019-04-07T00:25:45.600Z,11.53
2019-04-07T00:26:45.541Z,11.54
2019-04-07T00:27:45.480Z,11.57
2019-04-07T00:28:45.472Z,11.49
2019-04-07T00:29:45.367Z,11.50
2019-04-07T00:30:45.309Z,11.49
2019-04-07T00:31:45.251Z,11.41
2019-04-07T00:32:45.416Z,11.53
2019-04-07T00:33:45.400Z,11.47
2019-04-07T00:34:45.189Z,11.50
2019-04-07T00:35:45.032Z,11.50
2019-04-07T00:36:44.969Z,11.46
2019-04-07T00:37:44.911Z,11.43
2019-04-07T00:38:45.073Z,11.47
2019-04-07T00:39:44.798Z,11.54
2019-04-07T00:40:44.963Z,11.39
2019-04-07T00:41:45.395Z,11.46
2019-04-07T00:42:44.626Z,11.43
2019-04-07T00:43:44.622Z,11.41
2019-04-07T00:44:44.517Z,11.54
2019-04-07T00:45:44.457Z,11.43
2019-04-07T00:46:44.484Z,11.46
2019-04-07T00:47:44.907Z,11.43
2019-04-07T00:48:44.284Z,11.39
2019-04-07T00:49:44.364Z,11.47
2019-04-07T00:50:44.857Z,11.47
2019-04-07T00:51:44.121Z,11.46
2019-04-07T00:52:44.057Z,11.43
2019-04-07T00:53:44.283Z,11.38
2019-04-07T00:54:43.943Z,11.39
2019-04-07T00:55:43.956Z,11.47
2019-04-07T00:56:43.955Z,11.35
2019-04-07T00:57:44.096Z,11.36
2019-04-07T00:58:43.718Z,11.39
2019-04-07T00:59:44.065Z,11.36
2019-04-07T01:00:43.603Z,11.44
2019-04-07T01:01:43.542Z,11.38
2019-04-07T01:02:44.059Z,11.39
2019-04-07T01:03:43.430Z,11.38
2019-04-07T01:04:43.894Z,11.35
2019-04-07T01:05:43.987Z,11.38
2019-04-07T01:06:43.686Z,11.38
2019-04-07T01:07:43.797Z,11.41
2019-04-07T01:08:43.683Z,11.36
2019-04-07T01:09:43.225Z,11.35
2019-04-07T01:10:43.148Z,11.35
2019-04-07T01:11:43.060Z,11.38
2019-04-07T01:12:43.586Z,11.32
2019-04-07T01:13:42.858Z,11.35
2019-04-07T01:14:43.391Z,11.31
2019-04-07T01:15:43.463Z,11.35
2019-04-07T01:16:42.766Z,11.38
2019-04-07T01:17:42.630Z,11.31
2019-04-07T01:18:42.590Z,11.31
2019-04-07T01:19:43.232Z,11.34
2019-04-07T01:20:43.016Z,11.34
2019-04-07T01:21:42.404Z,11.29
2019-04-07T01:22:42.465Z,11.25
2019-04-07T01:23:42.465Z,11.34
2019-04-07T01:24:42.232Z,11.28
2019-04-07T01:25:42.175Z,11.27
2019-04-07T01:26:42.128Z,11.25
2019-04-07T01:27:42.405Z,11.24
2019-04-07T01:28:42.004Z,11.27
2019-04-07T01:29:41.946Z,11.35
2019-04-07T01:30:42.589Z,11.21
2019-04-07T01:31:41.831Z,11.25
2019-04-07T01:32:42.111Z,11.17
2019-04-07T01:33:41.716Z,11.28
2019-04-07T01:34:41.661Z,11.19
2019-04-07T01:35:48.196Z,11.27
2019-04-07T01:36:41.547Z,11.20
2019-04-07T01:37:41.826Z,11.11
2019-04-07T01:38:41.432Z,11.17
2019-04-07T01:39:41.380Z,11.19
2019-04-07T01:40:41.320Z,11.20
2019-04-07T01:41:41.709Z,11.20
2019-04-07T01:42:41.202Z,11.25
2019-04-07T01:43:41.368Z,11.25
2019-04-07T01:44:41.089Z,11.16
2019-04-07T01:45:41.032Z,11.13
2019-04-07T01:46:41.523Z,11.17
2019-04-07T01:47:40.918Z,11.20
2019-04-07T01:48:41.046Z,11.14
2019-04-07T01:49:41.198Z,11.11
2019-04-07T01:50:40.745Z,11.20
2019-04-07T01:51:41.063Z,11.17
2019-04-07T01:52:40.636Z,11.13
2019-04-07T01:53:40.833Z,11.19
2019-04-07T01:54:40.518Z,11.14
2019-04-07T01:55:41.064Z,11.19
2019-04-07T01:56:40.407Z,11.11
2019-04-07T01:57:41.072Z,11.14
2019-04-07T01:58:40.724Z,11.17
2019-04-07T01:59:40.847Z,11.17
2019-04-07T02:00:40.377Z,11.13
2019-04-07T02:01:40.117Z,11.16
2019-04-07T02:02:40.136Z,11.16
2019-04-07T02:03:40.003Z,11.14
2019-04-07T02:04:39.976Z,11.14
2019-04-07T02:05:39.888Z,11.16
2019-04-07T02:06:39.952Z,11.14
2019-04-07T02:07:40.103Z,11.11
2019-04-07T02:08:40.275Z,11.13
2019-04-07T02:09:40.225Z,11.14
2019-04-07T02:10:39.608Z,11.13
2019-04-07T02:11:39.768Z,11.06
2019-04-07T02:12:40.142Z,11.03
2019-04-07T02:13:39.429Z,11.13
2019-04-07T02:14:39.455Z,11.01
2019-04-07T02:15:39.437Z,11.06
2019-04-07T02:16:39.910Z,11.07
2019-04-07T02:17:39.202Z,11.03
2019-04-07T02:18:39.148Z,11.02
2019-04-07T02:19:39.591Z,10.99
2019-04-07T02:20:39.029Z,11.01
2019-04-07T02:21:39.173Z,11.10
2019-04-07T02:22:39.335Z,11.07
2019-04-07T02:23:39.347Z,11.09
2019-04-07T02:24:38.894Z,11.09
2019-04-07T02:25:38.925Z,11.14
2019-04-07T02:26:39.029Z,11.06
2019-04-07T02:27:38.627Z,11.06
2019-04-07T02:28:38.570Z,11.06
2019-04-07T02:29:38.834Z,10.99
2019-04-07T02:30:39.291Z,11.06
2019-04-07T02:31:38.399Z,11.02
2019-04-07T02:32:38.345Z,11.06
2019-04-07T02:33:39.335Z,11.07
2019-04-07T02:34:38.226Z,11.01
2019-04-07T02:35:38.169Z,10.98
2019-04-07T02:36:38.739Z,11.01
2019-04-07T02:37:38.734Z,11.01
2019-04-07T02:38:38.935Z,10.94
2019-04-07T02:39:38.688Z,11.01
2019-04-07T02:40:38.393Z,10.99
2019-04-07T02:41:38.015Z,10.96
2019-04-07T02:42:38.371Z,10.99
2019-04-07T02:43:38.445Z,10.99
2019-04-07T02:44:37.654Z,10.98
2019-04-07T02:45:38.317Z,11.02
2019-04-07T02:46:38.236Z,10.98
2019-04-07T02:47:37.481Z,11.01
2019-04-07T02:48:37.490Z,10.99
2019-04-07T02:49:37.958Z,10.95
2019-04-07T02:50:37.308Z,11.01
2019-04-07T02:51:38.241Z,11.02
2019-04-07T02:52:37.194Z,10.99
2019-04-07T02:53:37.965Z,11.01
2019-04-07T02:54:37.938Z,10.92
2019-04-07T02:55:37.417Z,10.96
2019-04-07T02:56:37.049Z,10.96
2019-04-07T02:57:37.087Z,10.98
2019-04-07T02:58:36.849Z,10.99
2019-04-07T02:59:40.087Z,10.92
2019-04-07T03:00:36.735Z,10.98
2019-04-07T03:01:37.053Z,10.96
2019-04-07T03:02:36.620Z,10.88
2019-04-07T03:03:36.911Z,10.88
2019-04-07T03:04:37.180Z,10.89
2019-04-07T03:05:36.447Z,10.94
2019-04-07T03:06:44.009Z,10.86
2019-04-07T03:07:36.336Z,10.94
2019-04-07T03:08:36.275Z,10.84
2019-04-07T03:09:36.574Z,10.83
2019-04-07T03:10:36.634Z,10.84
2019-04-07T03:11:36.103Z,10.89
2019-04-07T03:12:36.046Z,10.92
2019-04-07T03:13:36.720Z,10.84
2019-04-07T03:14:36.018Z,10.83
2019-04-07T03:15:36.324Z,10.86
2019-04-07T03:16:35.835Z,10.83
2019-04-07T03:17:36.210Z,10.80
2019-04-07T03:18:35.929Z,10.86
2019-04-07T03:19:35.643Z,10.89
2019-04-07T03:20:36.171Z,10.83
2019-04-07T03:21:36.294Z,10.89
2019-04-07T03:22:36.670Z,10.92
2019-04-07T03:23:36.383Z,10.78
2019-04-07T03:24:35.380Z,10.78
2019-04-07T03:25:35.655Z,10.78
2019-04-07T03:26:35.250Z,10.84
2019-04-07T03:27:36.127Z,10.81
2019-04-07T03:28:35.126Z,10.76
2019-04-07T03:29:35.104Z,10.73
2019-04-07T03:30:37.503Z,10.74
2019-04-07T03:31:36.476Z,10.77
2019-04-07T03:32:37.462Z,10.76
2019-04-07T03:33:37.894Z,10.77
2019-04-07T03:34:36.398Z,10.73
2019-04-07T03:35:35.251Z,10.77
2019-04-07T03:37:01.484Z,10.77
2019-04-07T03:37:42.813Z,10.74
2019-04-07T03:38:35.286Z,10.77
2019-04-07T03:39:34.512Z,10.76
2019-04-07T03:40:34.436Z,10.78
2019-04-07T03:41:35.046Z,10.81
2019-04-07T03:42:34.409Z,10.78
2019-04-07T03:43:34.603Z,10.83
2019-04-07T03:44:34.398Z,10.77
2019-04-07T03:45:34.150Z,10.74
2019-04-07T03:46:34.646Z,10.81
2019-04-07T03:47:34.037Z,10.77
2019-04-07T03:48:35.208Z,10.78
2019-04-07T03:49:35.014Z,10.71
2019-04-07T03:50:34.696Z,10.71
2019-04-07T03:51:33.804Z,10.74
2019-04-07T03:52:34.020Z,10.73
2019-04-07T03:53:33.776Z,10.68
2019-04-07T03:54:33.647Z,10.71
2019-04-07T03:55:33.577Z,10.74
2019-04-07T03:56:34.284Z,10.73
2019-04-07T03:57:34.026Z,10.68
2019-04-07T03:58:34.309Z,10.73
2019-04-07T03:59:33.395Z,10.68
2019-04-07T04:00:33.896Z,10.71
2019-04-07T04:01:33.636Z,10.73
2019-04-07T04:02:33.360Z,10.62
2019-04-07T04:03:33.111Z,10.62
2019-04-07T04:04:34.152Z,10.63
2019-04-07T04:05:34.093Z,10.65
2019-04-07T04:06:32.936Z,10.70
2019-04-07T04:07:36.594Z,10.62
2019-04-07T04:08:32.821Z,10.70
2019-04-07T04:09:32.765Z,10.68
2019-04-07T04:10:32.711Z,10.71
2019-04-07T04:11:32.649Z,10.74
2019-04-07T04:12:32.595Z,10.68
2019-04-07T04:13:32.796Z,10.66
2019-04-07T04:14:33.321Z,10.70
2019-04-07T04:15:32.891Z,10.70
2019-04-07T04:16:32.364Z,10.71
2019-04-07T04:17:32.737Z,10.68
2019-04-07T04:18:32.245Z,10.62
2019-04-07T04:19:32.188Z,10.70
2019-04-07T04:20:32.320Z,10.62
2019-04-07T04:21:32.852Z,10.68
2019-04-07T04:22:32.493Z,10.68
2019-04-07T04:23:31.958Z,10.62
2019-04-07T04:24:31.899Z,10.68
2019-04-07T04:25:32.199Z,10.56
2019-04-07T04:26:31.900Z,10.59
2019-04-07T04:27:31.726Z,10.56
2019-04-07T04:28:31.692Z,10.59
2019-04-07T04:29:31.791Z,10.58
2019-04-07T04:30:32.036Z,10.65
2019-04-07T04:31:31.498Z,10.53
2019-04-07T04:32:31.438Z,10.56
2019-04-07T04:33:31.380Z,10.56
2019-04-07T04:34:31.567Z,10.58
2019-04-07T04:35:32.378Z,10.56
2019-04-07T04:36:31.553Z,10.62
2019-04-07T04:37:40.222Z,10.60
2019-04-07T04:38:31.834Z,10.59
2019-04-07T04:39:31.451Z,10.68
2019-04-07T04:40:32.092Z,10.59
2019-04-07T04:41:30.922Z,10.59
2019-04-07T04:42:31.198Z,10.65
2019-04-07T04:43:31.762Z,10.58
2019-04-07T04:44:31.723Z,10.60
2019-04-07T04:45:31.643Z,10.53
2019-04-07T04:46:30.638Z,10.58
2019-04-07T04:47:30.963Z,10.56
2019-04-07T04:48:30.517Z,10.52
2019-04-07T04:49:30.836Z,10.52
2019-04-07T04:50:30.399Z,10.59
2019-04-07T04:51:34.904Z,10.55
2019-04-07T04:52:30.283Z,10.52
2019-04-07T04:53:30.835Z,10.55
2019-04-07T04:54:31.692Z,10.47
2019-04-07T04:55:30.108Z,10.53
2019-04-07T04:56:30.926Z,10.47
2019-04-07T04:57:29.993Z,10.51
2019-04-07T04:58:30.298Z,10.55
2019-04-07T04:59:29.879Z,10.53
2019-04-07T05:00:30.018Z,10.52
2019-04-07T05:01:29.762Z,10.55
2019-04-07T05:02:29.977Z,10.53
2019-04-07T05:03:30.319Z,10.51
2019-04-07T05:04:29.594Z,10.52
2019-04-07T05:05:30.359Z,10.55
2019-04-07T05:06:29.647Z,10.47
2019-04-07T05:07:30.074Z,10.51
2019-04-07T05:08:29.827Z,10.62
2019-04-07T05:09:40.235Z,10.52
2019-04-07T05:10:29.956Z,10.46
2019-04-07T05:11:29.348Z,10.58
2019-04-07T05:12:29.126Z,10.53
2019-04-07T05:13:29.069Z,10.46
2019-04-07T05:14:29.015Z,10.56
2019-04-07T05:15:28.973Z,10.55
2019-04-07T05:16:28.915Z,10.46
2019-04-07T05:17:28.892Z,10.47
2019-04-07T05:18:29.001Z,10.42
2019-04-07T05:19:28.782Z,10.52
2019-04-07T05:20:28.663Z,10.51
2019-04-07T05:21:28.942Z,10.52
2019-04-07T05:22:29.103Z,10.52
2019-04-07T05:23:28.549Z,10.51
2019-04-07T05:24:28.431Z,10.43
2019-04-07T05:25:28.412Z,10.58
2019-04-07T05:26:29.071Z,10.44
2019-04-07T05:27:28.265Z,10.51
2019-04-07T05:28:28.671Z,10.47
2019-04-07T05:29:28.143Z,10.46
2019-04-07T05:30:28.257Z,10.44
2019-04-07T05:31:28.312Z,10.53
2019-04-07T05:32:28.571Z,10.51
2019-04-07T05:33:27.912Z,10.51
2019-04-07T05:34:27.946Z,10.46
2019-04-07T05:35:28.589Z,10.47
2019-04-07T05:36:27.762Z,10.53
2019-04-07T05:37:28.318Z,10.46
2019-04-07T05:38:27.622Z,10.42
2019-04-07T05:39:28.285Z,10.52
2019-04-07T05:40:27.779Z,10.47
2019-04-07T05:41:27.446Z,10.44
2019-04-07T05:42:27.853Z,10.47
2019-04-07T05:43:27.407Z,10.47
2019-04-07T05:44:27.843Z,10.51
2019-04-07T05:45:27.917Z,10.52
2019-04-07T05:46:28.316Z,10.46
2019-04-07T05:47:27.634Z,10.52
2019-04-07T05:48:27.043Z,10.44
2019-04-07T05:49:27.153Z,10.52
2019-04-07T05:50:28.575Z,10.44
2019-04-07T05:51:29.942Z,10.52
2019-04-07T05:52:27.255Z,10.43
2019-04-07T05:53:26.773Z,10.53
2019-04-07T05:54:27.461Z,10.46
2019-04-07T05:55:27.129Z,10.51
2019-04-07T05:56:28.327Z,10.52
2019-04-07T05:57:30.891Z,10.52
2019-04-07T05:58:26.819Z,10.44
2019-04-07T05:59:26.408Z,10.62
2019-04-07T06:00:26.348Z,10.47
2019-04-07T06:01:26.754Z,10.51
2019-04-07T06:02:27.124Z,10.51
2019-04-07T06:03:26.380Z,10.58
2019-04-07T06:04:26.121Z,10.52
2019-04-07T06:05:26.063Z,10.59
2019-04-07T06:06:26.865Z,10.53
2019-04-07T06:07:29.627Z,10.52
2019-04-07T06:08:32.608Z,10.62
2019-04-07T06:09:26.428Z,10.47
2019-04-07T06:10:28.741Z,10.46
2019-04-07T06:11:25.903Z,10.47
2019-04-07T06:12:26.152Z,10.47
2019-04-07T06:13:25.601Z,10.46
2019-04-07T06:14:25.969Z,10.43
2019-04-07T06:15:25.844Z,10.46
2019-04-07T06:16:25.422Z,10.55
2019-04-07T06:17:26.388Z,10.55
2019-04-07T06:18:25.895Z,10.47
2019-04-07T06:19:25.248Z,10.53
2019-04-07T06:20:25.189Z,10.56
2019-04-07T06:21:25.517Z,10.55
2019-04-07T06:22:25.878Z,10.51
2019-04-07T06:23:27.514Z,10.56
2019-04-07T06:24:26.879Z,10.63
2019-04-07T06:25:25.133Z,10.62
2019-04-07T06:26:25.535Z,10.55
2019-04-07T06:27:24.784Z,10.55
2019-04-07T06:28:24.873Z,10.53
2019-04-07T06:29:26.335Z,10.53
2019-04-07T06:30:28.126Z,10.51
2019-04-07T06:31:26.323Z,10.52
2019-04-07T06:32:24.508Z,10.51
2019-04-07T06:33:24.435Z,10.55
2019-04-07T06:34:24.954Z,10.52
2019-04-07T06:35:24.320Z,10.55
2019-04-07T06:36:26.604Z,10.55
2019-04-07T06:37:28.896Z,10.51
2019-04-07T06:38:31.135Z,10.52
2019-04-07T06:39:24.146Z,10.59
2019-04-07T06:40:24.270Z,10.55
2019-04-07T06:41:27.366Z,10.58
2019-04-07T06:42:24.193Z,10.55
2019-04-07T06:43:23.863Z,10.55
2019-04-07T06:44:24.299Z,10.60
2019-04-07T06:45:24.466Z,10.59
2019-04-07T06:46:27.647Z,10.63
2019-04-07T06:47:23.814Z,10.59
2019-04-07T06:48:23.570Z,10.65
2019-04-07T06:49:27.537Z,10.62
2019-04-07T06:50:23.454Z,10.62
2019-04-07T06:51:24.000Z,10.59
2019-04-07T06:52:23.870Z,10.63
2019-04-07T06:53:23.546Z,10.56
2019-04-07T06:54:23.262Z,10.59
2019-04-07T06:55:26.635Z,10.59
2019-04-07T06:56:23.232Z,10.56
2019-04-07T06:57:23.347Z,10.62
2019-04-07T06:58:22.988Z,10.59
2019-04-07T06:59:23.002Z,10.63
2019-04-07T07:00:24.465Z,10.56
2019-04-07T07:01:25.783Z,10.62
2019-04-07T07:02:22.756Z,10.59
2019-04-07T07:03:22.699Z,10.66
2019-04-07T07:04:23.223Z,10.68
2019-04-07T07:05:22.582Z,10.68
2019-04-07T07:06:22.941Z,10.65
2019-04-07T07:07:22.686Z,10.63
2019-04-07T07:08:22.410Z,10.65
2019-04-07T07:09:25.816Z,10.62
2019-04-07T07:10:28.859Z,10.68
2019-04-07T07:11:28.744Z,10.71
2019-04-07T07:12:27.636Z,10.62
2019-04-07T07:13:29.859Z,10.62
2019-04-07T07:14:33.247Z,10.68
2019-04-07T07:15:22.038Z,10.68
2019-04-07T07:16:22.155Z,10.71
2019-04-07T07:17:22.490Z,10.68
2019-04-07T07:18:23.830Z,10.70
2019-04-07T07:19:24.439Z,10.70
2019-04-07T07:20:21.776Z,10.71
2019-04-07T07:21:24.160Z,10.65
2019-04-07T07:22:21.598Z,10.71
2019-04-07T07:23:22.030Z,10.63
2019-04-07T07:24:25.096Z,10.70
2019-04-07T07:25:21.545Z,10.68
2019-04-07T07:26:21.893Z,10.62
2019-04-07T07:27:21.798Z,10.73
2019-04-07T07:28:21.285Z,10.74
2019-04-07T07:29:21.396Z,10.81
2019-04-07T07:30:21.385Z,10.74
2019-04-07T07:31:24.714Z,10.73
2019-04-07T07:32:21.576Z,10.78
2019-04-07T07:33:21.386Z,10.71
2019-04-07T07:34:21.154Z,10.76
2019-04-07T07:35:20.846Z,10.76
2019-04-07T07:36:22.645Z,10.80
2019-04-07T07:37:22.703Z,10.74
2019-04-07T07:38:21.340Z,10.77
2019-04-07T07:39:22.880Z,10.78
2019-04-07T07:40:21.144Z,10.86
2019-04-07T07:41:22.386Z,10.77
2019-04-07T07:42:23.283Z,10.80
2019-04-07T07:43:21.048Z,10.78
2019-04-07T07:44:20.325Z,10.83
2019-04-07T07:45:20.266Z,10.80
2019-04-07T07:46:21.844Z,10.83
2019-04-07T07:47:21.814Z,10.86
2019-04-07T07:48:20.809Z,10.84
2019-04-07T07:49:20.402Z,10.83
2019-04-07T07:50:20.152Z,10.86
2019-04-07T07:51:20.311Z,10.94
2019-04-07T07:52:21.768Z,10.80
2019-04-07T07:53:23.888Z,10.92
2019-04-07T07:54:19.750Z,10.92
2019-04-07T07:55:19.782Z,10.94
2019-04-07T07:56:20.206Z,10.86
2019-04-07T07:57:23.529Z,10.84
2019-04-07T07:58:20.173Z,10.86
2019-04-07T07:59:20.084Z,10.86
2019-04-07T08:00:19.840Z,10.92
2019-04-07T08:01:19.346Z,10.84
2019-04-07T08:02:19.954Z,10.89
2019-04-07T08:03:22.490Z,10.94
2019-04-07T08:04:19.178Z,10.88
2019-04-07T08:05:19.109Z,10.95
2019-04-07T08:06:19.412Z,10.98
2019-04-07T08:07:19.383Z,10.95
2019-04-07T08:08:18.939Z,11.01
2019-04-07T08:09:22.350Z,10.94
2019-04-07T08:10:18.822Z,10.99
2019-04-07T08:11:18.799Z,11.02
2019-04-07T08:12:18.786Z,10.98
2019-04-07T08:13:19.014Z,10.94
2019-04-07T08:14:18.598Z,11.06
2019-04-07T08:15:23.514Z,11.13
2019-04-07T08:16:19.167Z,11.14
2019-04-07T08:17:18.458Z,11.06
2019-04-07T08:18:20.490Z,11.02
2019-04-07T08:19:18.993Z,11.07
2019-04-07T08:20:18.575Z,10.99
2019-04-07T08:21:20.098Z,11.11
2019-04-07T08:22:27.604Z,11.03
2019-04-07T08:23:18.717Z,11.09
2019-04-07T08:24:19.153Z,11.03
2019-04-07T08:25:20.407Z,11.10
2019-04-07T08:26:18.298Z,11.01
2019-04-07T08:27:17.839Z,11.01
2019-04-07T08:28:19.395Z,11.02
2019-04-07T08:29:17.872Z,11.06
2019-04-07T08:30:17.751Z,11.06
2019-04-07T08:31:21.092Z,11.01
2019-04-07T08:32:17.653Z,11.09
2019-04-07T08:33:17.925Z,11.13
2019-04-07T08:34:17.846Z,11.17
2019-04-07T08:35:17.625Z,11.13
2019-04-07T08:36:17.320Z,11.20
2019-04-07T08:37:17.928Z,11.16
2019-04-07T08:38:19.976Z,11.10
2019-04-07T08:39:23.007Z,11.02
2019-04-07T08:40:17.094Z,11.01
2019-04-07T08:41:17.041Z,11.11
2019-04-07T08:42:18.744Z,11.17
2019-04-07T08:43:19.635Z,11.14
2019-04-07T08:44:17.166Z,11.20
2019-04-07T08:45:16.809Z,11.17
2019-04-07T08:46:16.741Z,11.13
2019-04-07T08:47:21.123Z,11.13
2019-04-07T08:48:19.385Z,11.17
2019-04-07T08:49:16.979Z,11.16
2019-04-07T08:50:16.954Z,11.19
2019-04-07T08:51:16.468Z,11.25
2019-04-07T08:52:16.416Z,11.16
2019-04-07T08:53:16.979Z,11.21
2019-04-07T08:54:18.269Z,11.16
2019-04-07T08:55:16.223Z,11.28
2019-04-07T08:56:16.492Z,11.19
2019-04-07T08:57:16.328Z,11.25
2019-04-07T08:58:25.098Z,11.29
2019-04-07T08:59:17.144Z,11.25
2019-04-07T09:00:17.361Z,11.31
2019-04-07T09:01:19.328Z,11.28
2019-04-07T09:02:15.826Z,11.29
2019-04-07T09:03:16.449Z,11.34
2019-04-07T09:04:16.975Z,11.32
2019-04-07T09:05:16.278Z,11.38
2019-04-07T09:06:16.286Z,11.34
2019-04-07T09:07:16.295Z,11.38
2019-04-07T09:08:16.079Z,11.36
2019-04-07T09:09:15.669Z,11.39
2019-04-07T09:10:18.260Z,11.43
2019-04-07T09:11:15.879Z,11.39
2019-04-07T09:12:15.332Z,11.39
2019-04-07T09:13:15.199Z,11.46
2019-04-07T09:14:17.259Z,11.43
2019-04-07T09:15:15.518Z,11.47
2019-04-07T09:16:16.603Z,11.49
2019-04-07T09:17:15.026Z,11.44
2019-04-07T09:18:16.098Z,11.39
2019-04-07T09:19:15.030Z,11.47
2019-04-07T09:20:14.781Z,11.43
2019-04-07T09:21:15.355Z,11.47
2019-04-07T09:22:15.429Z,11.44
2019-04-07T09:23:14.729Z,11.54
2019-04-07T09:24:15.027Z,11.41
2019-04-07T09:25:14.496Z,11.54
2019-04-07T09:26:15.070Z,11.50
2019-04-07T09:27:18.565Z,11.54
2019-04-07T09:28:14.329Z,11.52
2019-04-07T09:29:14.263Z,11.54
2019-04-07T09:30:14.249Z,11.46
2019-04-07T09:31:14.374Z,11.54
2019-04-07T09:32:14.091Z,11.52
2019-04-07T09:33:14.809Z,11.50
2019-04-07T09:34:18.318Z,11.57
2019-04-07T09:35:14.444Z,11.53
2019-04-07T09:36:13.861Z,11.53
2019-04-07T09:37:13.803Z,11.59
2019-04-07T09:38:14.365Z,11.56
2019-04-07T09:39:14.431Z,11.54
2019-04-07T09:40:16.435Z,11.54
2019-04-07T09:41:14.368Z,11.59
2019-04-07T09:42:13.763Z,11.59
2019-04-07T09:43:14.540Z,11.61
2019-04-07T09:44:13.611Z,11.65
2019-04-07T09:45:13.822Z,11.64
2019-04-07T09:46:13.636Z,11.59
2019-04-07T09:47:15.802Z,11.61
2019-04-07T09:48:13.696Z,11.64
2019-04-07T09:49:13.555Z,11.59
2019-04-07T09:50:13.057Z,11.57
2019-04-07T09:51:13.007Z,11.62
2019-04-07T09:52:15.034Z,11.65
2019-04-07T09:53:15.818Z,11.62
2019-04-07T09:54:13.332Z,11.62
2019-04-07T09:55:13.018Z,11.64
2019-04-07T09:56:13.032Z,11.61
2019-04-07T09:57:12.653Z,11.68
2019-04-07T09:58:12.601Z,11.68
2019-04-07T09:59:16.912Z,11.64
2019-04-07T10:00:12.684Z,11.65
2019-04-07T10:01:15.071Z,11.68
2019-04-07T10:02:12.481Z,11.72
2019-04-07T10:03:14.058Z,11.65
2019-04-07T10:04:12.262Z,11.68
2019-04-07T10:05:12.193Z,11.67
2019-04-07T10:06:12.136Z,11.67
2019-04-07T10:07:13.037Z,11.71
2019-04-07T10:08:13.780Z,11.72
2019-04-07T10:09:11.971Z,11.62
2019-04-07T10:10:14.454Z,11.64
2019-04-07T10:11:11.918Z,11.62
2019-04-07T10:12:11.793Z,11.71
2019-04-07T10:13:12.365Z,11.68
2019-04-07T10:14:11.677Z,11.72
2019-04-07T10:15:12.749Z,11.70
2019-04-07T10:16:11.955Z,11.68
2019-04-07T10:17:11.870Z,11.64
2019-04-07T10:18:11.446Z,11.62
2019-04-07T10:19:11.405Z,11.67
2019-04-07T10:20:11.333Z,11.65
2019-04-07T10:21:11.426Z,11.67
2019-04-07T10:22:12.364Z,11.67
2019-04-07T10:23:11.160Z,11.65
2019-04-07T10:24:11.810Z,11.74
2019-04-07T10:25:11.061Z,11.70
2019-04-07T10:26:10.998Z,11.67
2019-04-07T10:27:10.931Z,11.67
2019-04-07T10:28:12.647Z,11.72
2019-04-07T10:29:11.081Z,11.65
2019-04-07T10:30:11.067Z,11.71
2019-04-07T10:31:11.355Z,11.71
2019-04-07T10:32:11.386Z,11.65
2019-04-07T10:33:10.637Z,11.68
2019-04-07T10:34:13.069Z,11.70
2019-04-07T10:35:11.215Z,11.72
2019-04-07T10:36:11.222Z,11.65
2019-04-07T10:37:10.528Z,11.77
2019-04-07T10:38:10.984Z,11.74
2019-04-07T10:39:10.244Z,11.72
2019-04-07T10:40:17.475Z,11.74
2019-04-07T10:41:10.723Z,11.75
2019-04-07T10:42:10.070Z,11.82
2019-04-07T10:43:10.666Z,11.78
2019-04-07T10:44:09.971Z,11.75
2019-04-07T10:45:10.743Z,11.83
2019-04-07T10:46:11.211Z,11.83
2019-04-07T10:47:10.668Z,11.85
2019-04-07T10:48:09.728Z,11.87
2019-04-07T10:49:10.334Z,11.83
2019-04-07T10:50:10.082Z,11.87
2019-04-07T10:51:10.414Z,11.89
2019-04-07T10:52:10.210Z,11.85
2019-04-07T10:53:09.440Z,11.96
2019-04-07T10:54:10.044Z,11.83
2019-04-07T10:55:09.729Z,11.96
2019-04-07T10:56:09.917Z,11.94
2019-04-07T10:57:09.965Z,11.89
2019-04-07T10:58:09.185Z,11.86
2019-04-07T10:59:09.347Z,11.86
2019-04-07T11:00:09.070Z,11.82
2019-04-07T11:01:09.040Z,11.97
2019-04-07T11:02:08.923Z,12.04
2019-04-07T11:03:08.867Z,11.97
2019-04-07T11:04:09.479Z,11.96
2019-04-07T11:05:09.522Z,11.93
2019-04-07T11:06:08.693Z,11.94
2019-04-07T11:07:08.637Z,12.01
2019-04-07T11:08:08.582Z,11.99
2019-04-07T11:09:08.802Z,11.97
2019-04-07T11:10:09.226Z,11.94
2019-04-07T11:11:08.409Z,11.99
2019-04-07T11:12:08.837Z,11.94
2019-04-07T11:13:09.557Z,11.93
2019-04-07T11:14:09.611Z,11.96
2019-04-07T11:15:08.235Z,11.97
2019-04-07T11:16:08.253Z,11.93
2019-04-07T11:17:08.181Z,12.06
2019-04-07T11:18:08.698Z,12.04
2019-04-07T11:19:07.955Z,12.04
2019-04-07T11:20:08.174Z,12.06
2019-04-07T11:21:07.834Z,12.04
2019-04-07T11:22:07.890Z,12.13
2019-04-07T11:23:08.435Z,12.02
2019-04-07T11:24:07.665Z,12.05
2019-04-07T11:25:07.606Z,12.04
2019-04-07T11:26:07.548Z,12.05
2019-04-07T11:27:08.106Z,12.06
2019-04-07T11:28:07.437Z,12.15
2019-04-07T11:29:07.380Z,12.13
2019-04-07T11:30:08.081Z,12.12
2019-04-07T11:31:07.988Z,12.19
2019-04-07T11:32:07.625Z,12.13
2019-04-07T11:33:07.200Z,12.21
2019-04-07T11:34:07.105Z,12.16
2019-04-07T11:35:07.735Z,12.20
2019-04-07T11:36:07.067Z,12.21
2019-04-07T11:37:09.791Z,12.20
2019-04-07T11:38:06.865Z,12.23
2019-04-07T11:39:07.001Z,12.13
2019-04-07T11:40:06.750Z,12.19
2019-04-07T11:41:06.693Z,12.20
2019-04-07T11:42:07.554Z,12.29
2019-04-07T11:43:07.160Z,12.20
2019-04-07T11:44:07.322Z,12.24
2019-04-07T11:45:06.463Z,12.24
2019-04-07T11:46:06.855Z,12.26
2019-04-07T11:47:06.352Z,12.34
2019-04-07T11:48:06.641Z,12.33
2019-04-07T11:49:07.361Z,12.29
2019-04-07T11:50:06.335Z,12.30
2019-04-07T11:51:06.279Z,12.34
2019-04-07T11:52:06.179Z,12.34
2019-04-07T11:53:07.433Z,12.33
2019-04-07T11:54:05.950Z,12.37
2019-04-07T11:55:06.310Z,12.34
2019-04-07T11:56:09.502Z,12.37
2019-04-07T11:57:05.807Z,12.38
2019-04-07T11:58:13.530Z,12.39
2019-04-07T11:59:08.519Z,12.37
2019-04-07T12:00:06.380Z,12.33
2019-04-07T12:01:05.810Z,12.41
2019-04-07T12:02:07.571Z,12.30
2019-04-07T12:03:06.075Z,12.33
2019-04-07T12:04:05.773Z,12.31
2019-04-07T12:05:05.469Z,12.34
2019-04-07T12:06:05.272Z,12.42
2019-04-07T12:07:05.209Z,12.31
2019-04-07T12:08:06.074Z,12.51
2019-04-07T12:09:05.098Z,12.45
2019-04-07T12:10:05.144Z,12.44
2019-04-07T12:11:06.297Z,12.45
2019-04-07T12:12:05.802Z,12.49
2019-04-07T12:13:05.082Z,12.42
2019-04-07T12:14:05.187Z,12.46
2019-04-07T12:15:05.274Z,12.48
2019-04-07T12:16:05.577Z,12.52
2019-04-07T12:17:06.954Z,12.46
2019-04-07T12:18:07.370Z,12.45
2019-04-07T12:19:04.547Z,12.48
2019-04-07T12:20:05.273Z,12.48
2019-04-07T12:21:05.494Z,12.48
2019-04-07T12:22:08.713Z,12.57
2019-04-07T12:23:04.807Z,12.41
2019-04-07T12:24:04.784Z,12.54
2019-04-07T12:25:05.413Z,12.44
2019-04-07T12:26:05.162Z,12.44
2019-04-07T12:27:04.795Z,12.48
2019-04-07T12:28:04.018Z,12.48
2019-04-07T12:29:04.024Z,12.45
2019-04-07T12:30:04.353Z,12.56
2019-04-07T12:31:03.844Z,12.57
2019-04-07T12:32:03.986Z,12.59
2019-04-07T12:33:06.550Z,12.56
2019-04-07T12:34:03.907Z,12.52
2019-04-07T12:35:04.228Z,12.54
2019-04-07T12:36:03.562Z,12.63
2019-04-07T12:37:06.506Z,12.54
2019-04-07T12:38:04.042Z,12.54
2019-04-07T12:39:03.995Z,12.51
2019-04-07T12:40:03.339Z,12.56
2019-04-07T12:41:14.284Z,12.59
2019-04-07T12:42:05.187Z,12.56
2019-04-07T12:43:03.529Z,12.60
2019-04-07T12:44:04.363Z,12.63
2019-04-07T12:45:03.699Z,12.59
2019-04-07T12:46:03.623Z,12.67
2019-04-07T12:47:03.159Z,12.67
2019-04-07T12:48:03.323Z,12.75
2019-04-07T12:49:06.343Z,12.81
2019-04-07T12:50:02.768Z,12.74
2019-04-07T12:51:03.125Z,12.85
2019-04-07T12:52:02.655Z,12.85